Time;durP1;ratioP1;P1;durP2;ratioP2;P2;SDS_P1;SDS_P2;PMS_P1;PMS_P2;Temp;Humidity;BMP_temperature;BMP_pressure;BME280_temperature;BME280_humidity;BME280_pressure;Samples;Min_cycle;Max_cycle;Signal;HPM_P1;HPM_P2
2022/11/13 00:02:25;;;;;;;98.97;15.73;;;;;;;;;;5036178;28;20239;-90
2022/11/13 00:04:52;;;;;;;98.00;15.93;;;;;;;;;;5036149;28;20580;-90
2022/11/13 00:07:20;;;;;;;93.90;16.77;;;;;;;;;;5026221;28;20238;-90
2022/11/13 00:09:47;;;;;;;124.27;18.43;;;;;;;;;;5017136;28;20200;-90
2022/11/13 00:12:14;;;;;;;89.47;15.03;;;;;;;;;;5015536;28;20235;-90
2022/11/13 00:14:42;;;;;;;71.13;17.13;;;;;;;;;;5016127;28;20237;-90
2022/11/13 00:17:09;;;;;;;90.00;15.50;;;;;;;;;;5015315;28;20241;-90
2022/11/13 00:19:37;;;;;;;108.50;16.47;;;;;;;;;;5016023;28;20199;-91
2022/11/13 00:22:04;;;;;;;111.03;22.07;;;;;;;;;;5015506;28;20240;-90
2022/11/13 00:24:31;;;;;;;48.83;14.50;;;;;;;;;;5016658;28;20223;-91
2022/11/13 00:26:58;;;;;;;59.27;16.83;;;;;;;;;;5020574;28;20734;-91
2022/11/13 00:29:25;;;;;;;64.80;15.30;;;;;;;;;;5035451;28;20214;-90
2022/11/13 00:31:54;;;;;;;59.73;16.73;;;;;;;;;;5034779;28;20234;-90
2022/11/13 00:34:21;;;;;;;84.47;15.43;;;;;;;;;;5025704;28;20227;-90
2022/11/13 00:36:48;;;;;;;38.77;14.30;;;;;;;;;;5019441;28;20234;-90
2022/11/13 00:39:15;;;;;;;51.73;14.03;;;;;;;;;;5019951;28;20219;-90
2022/11/13 00:41:42;;;;;;;58.33;15.00;;;;;;;;;;5034399;28;20237;-91
2022/11/13 00:44:09;;;;;;;48.03;13.77;;;;;;;;;;5035010;28;20601;-90
2022/11/13 00:46:36;;;;;;;57.10;15.87;;;;;;;;;;5032220;28;20237;-90
2022/11/13 00:49:05;;;;;;;53.37;15.33;;;;;;;;;;5034433;28;20203;-91
2022/11/13 00:51:32;;;;;;;58.00;14.80;;;;;;;;;;5032119;28;20230;-90
2022/11/13 00:53:59;;;;;;;57.63;14.13;;;;;;;;;;5014784;28;20231;-91
2022/11/13 00:56:26;;;;;;;52.07;14.53;;;;;;;;;;5014007;28;20811;-90
2022/11/13 00:58:54;;;;;;;40.13;13.73;;;;;;;;;;5014550;28;20218;-90
2022/11/13 01:01:21;;;;;;;53.70;14.57;;;;;;;;;;5014206;28;20741;-90
2022/11/13 01:03:48;;;;;;;74.03;16.13;;;;;;;;;;5014097;28;20222;-90
2022/11/13 01:06:18;;;;;;;38.90;14.77;;;;;;;;;;5013867;28;20232;-90
2022/11/13 01:08:46;;;;;;;52.33;16.27;;;;;;;;;;5014326;28;20196;-90
2022/11/13 01:11:14;;;;;;;45.53;14.87;;;;;;;;;;5014038;28;20238;-90
2022/11/13 01:13:41;;;;;;;60.70;16.00;;;;;;;;;;5030873;23;20242;-82
2022/11/13 01:16:09;;;;;;;45.80;13.23;;;;;;;;;;5024049;28;20230;-81
2022/11/13 01:18:37;;;;;;;60.33;14.70;;;;;;;;;;5030704;28;20213;-81
2022/11/13 01:21:05;;;;;;;36.73;12.90;;;;;;;;;;5044456;28;20240;-81
2022/11/13 01:23:33;;;;;;;58.93;13.33;;;;;;;;;;5051169;28;20214;-81
2022/11/13 01:26:08;;;;;;;43.30;13.33;;;;;;;;;;5041894;28;20230;-81
2022/11/13 01:28:35;;;;;;;35.90;13.90;;;;;;;;;;5030615;28;20202;-80
2022/11/13 01:31:05;;;;;;;38.77;12.83;;;;;;;;;;5030915;28;20242;-81
2022/11/13 01:33:32;;;;;;;24.53;11.43;;;;;;;;;;5035827;28;20198;-81
2022/11/13 01:36:02;;;;;;;43.73;14.63;;;;;;;;;;5050827;28;20233;-81
2022/11/13 01:38:29;;;;;;;44.27;13.20;;;;;;;;;;5038392;28;20210;-81
2022/11/13 01:40:58;;;;;;;22.50;11.93;;;;;;;;;;5030370;28;20250;-81
2022/11/13 01:43:27;;;;;;;51.33;12.93;;;;;;;;;;5031603;28;20235;-81
2022/11/13 01:46:14;;;;;;;30.87;12.33;;;;;;;;;;5030743;28;20237;-81
2022/11/13 01:48:42;;;;;;;57.50;13.67;;;;;;;;;;5031216;28;20215;-81
2022/11/13 01:51:12;;;;;;;44.73;12.50;;;;;;;;;;5030200;28;20234;-80
2022/11/13 01:53:39;;;;;;;45.07;12.13;;;;;;;;;;5031259;28;20215;-80
2022/11/13 01:56:08;;;;;;;38.43;12.70;;;;;;;;;;5030727;28;20241;-80
2022/11/13 01:58:36;;;;;;;39.70;12.13;;;;;;;;;;5029809;28;20202;-80
2022/11/13 02:01:03;;;;;;;46.33;12.70;;;;;;;;;;5035542;28;20234;-80
2022/11/13 02:03:30;;;;;;;37.03;12.97;;;;;;;;;;5027119;28;20202;-81
2022/11/13 02:05:57;;;;;;;43.17;12.07;;;;;;;;;;5030666;28;20242;-81
2022/11/13 02:08:24;;;;;;;48.53;14.23;;;;;;;;;;5030935;28;20213;-80
2022/11/13 02:10:52;;;;;;;38.23;13.43;;;;;;;;;;5030438;28;20213;-81
2022/11/13 02:13:20;;;;;;;40.97;13.10;;;;;;;;;;5031143;28;20230;-81
2022/11/13 02:15:48;;;;;;;35.87;14.47;;;;;;;;;;5031340;28;20772;-80
2022/11/13 02:18:17;;;;;;;42.67;12.23;;;;;;;;;;5030615;28;20233;-80
2022/11/13 02:20:50;;;;;;;48.57;12.97;;;;;;;;;;5030714;28;20209;-80
2022/11/13 02:23:19;;;;;;;36.23;13.60;;;;;;;;;;5030853;28;20218;-81
2022/11/13 02:25:50;;;;;;;36.90;12.07;;;;;;;;;;5025882;28;20228;-81
2022/11/13 02:28:17;;;;;;;45.53;14.27;;;;;;;;;;5037146;28;20198;-81
2022/11/13 02:30:45;;;;;;;31.97;11.27;;;;;;;;;;5049517;28;20214;-80
2022/11/13 02:33:21;;;;;;;30.17;11.27;;;;;;;;;;5032094;28;20195;-80
2022/11/13 02:35:48;;;;;;;57.13;14.17;;;;;;;;;;5030120;28;20230;-81
2022/11/13 02:38:15;;;;;;;41.90;11.63;;;;;;;;;;5021647;28;20230;-81
2022/11/13 02:40:42;;;;;;;31.00;12.43;;;;;;;;;;5013856;28;20207;-81
2022/11/13 02:43:11;;;;;;;29.93;11.10;;;;;;;;;;5014866;28;20214;-81
2022/11/13 02:45:38;;;;;;;42.47;11.57;;;;;;;;;;5014302;28;20231;-81
2022/11/13 02:48:06;;;;;;;25.23;10.40;;;;;;;;;;5027815;28;20198;-81
2022/11/13 02:50:33;;;;;;;22.17;10.03;;;;;;;;;;5054038;28;20210;-80
2022/11/13 02:53:00;;;;;;;42.33;10.93;;;;;;;;;;5050663;28;20230;-80
2022/11/13 02:55:27;;;;;;;29.83;11.40;;;;;;;;;;5033977;28;20246;-80
2022/11/13 02:57:54;;;;;;;30.93;11.30;;;;;;;;;;5027121;28;20698;-80
2022/11/13 03:00:23;;;;;;;39.00;10.87;;;;;;;;;;5034239;28;20683;-80
2022/11/13 03:02:50;;;;;;;31.73;11.20;;;;;;;;;;5034030;28;20230;-80
2022/11/13 03:05:17;;;;;;;41.23;11.23;;;;;;;;;;5034485;28;20231;-80
2022/11/13 03:07:44;;;;;;;40.10;11.17;;;;;;;;;;5038764;28;20234;-80
2022/11/13 03:10:12;;;;;;;39.80;11.30;;;;;;;;;;5036685;28;20210;-80
2022/11/13 03:12:39;;;;;;;25.20;10.83;;;;;;;;;;5037952;28;20234;-80
2022/11/13 03:15:07;;;;;;;33.03;9.60;;;;;;;;;;5038621;28;20261;-80
2022/11/13 03:17:36;;;;;;;36.93;10.23;;;;;;;;;;5039146;28;20241;-80
2022/11/13 03:20:03;;;;;;;26.83;9.63;;;;;;;;;;5042423;28;20207;-80
2022/11/13 03:22:30;;;;;;;26.63;9.97;;;;;;;;;;5032943;28;20284;-80
2022/11/13 03:24:57;;;;;;;26.20;9.03;;;;;;;;;;5034250;28;20226;-81
2022/11/13 03:27:24;;;;;;;41.80;10.60;;;;;;;;;;5049250;28;20724;-81
2022/11/13 03:29:51;;;;;;;35.40;9.43;;;;;;;;;;5046258;28;20224;-80
2022/11/13 03:32:18;;;;;;;22.63;8.83;;;;;;;;;;5033876;28;20235;-80
2022/11/13 03:34:47;;;;;;;32.03;9.40;;;;;;;;;;5033967;28;20722;-80
2022/11/13 03:37:14;;;;;;;20.20;8.80;;;;;;;;;;5033172;28;20717;-81
2022/11/13 03:39:41;;;;;;;44.50;9.37;;;;;;;;;;5046498;28;20229;-80
2022/11/13 03:42:08;;;;;;;12.37;8.47;;;;;;;;;;5033274;28;20234;-80
2022/11/13 03:44:35;;;;;;;31.80;9.87;;;;;;;;;;5033862;28;20254;-81
2022/11/13 03:47:02;;;;;;;16.43;9.63;;;;;;;;;;5032741;28;20235;-80
2022/11/13 03:49:29;;;;;;;24.20;9.87;;;;;;;;;;5032861;28;20579;-80
2022/11/13 03:51:57;;;;;;;21.80;8.97;;;;;;;;;;5031378;28;20226;-80
2022/11/13 03:54:24;;;;;;;32.90;10.20;;;;;;;;;;5032629;28;20222;-80
2022/11/13 03:56:51;;;;;;;30.13;9.73;;;;;;;;;;5032563;28;20251;-80
2022/11/13 03:59:19;;;;;;;31.87;8.87;;;;;;;;;;5032641;28;20210;-80
2022/11/13 04:01:46;;;;;;;24.20;9.10;;;;;;;;;;5052198;28;20230;-80
2022/11/13 04:04:13;;;;;;;36.30;11.80;;;;;;;;;;5036279;28;20223;-80
2022/11/13 04:06:40;;;;;;;34.10;8.90;;;;;;;;;;5030548;28;20230;-80
2022/11/13 04:09:08;;;;;;;28.27;10.77;;;;;;;;;;5031500;28;20234;-80
2022/11/13 04:11:35;;;;;;;38.40;9.40;;;;;;;;;;5038993;28;20230;-80
2022/11/13 04:14:02;;;;;;;29.90;9.07;;;;;;;;;;5043209;28;20245;-80
2022/11/13 04:16:29;;;;;;;40.43;9.63;;;;;;;;;;5032129;28;20231;-80
2022/11/13 04:18:56;;;;;;;47.03;9.37;;;;;;;;;;5032409;28;20230;-80
2022/11/13 04:21:23;;;;;;;32.10;9.03;;;;;;;;;;5032547;28;20233;-80
2022/11/13 04:23:50;;;;;;;18.47;8.93;;;;;;;;;;5027733;28;20221;-80
2022/11/13 04:26:19;;;;;;;22.87;8.80;;;;;;;;;;5032086;28;20230;-80
2022/11/13 04:28:46;;;;;;;52.53;12.60;;;;;;;;;;5032294;28;20561;-80
2022/11/13 04:31:13;;;;;;;49.13;8.63;;;;;;;;;;5032075;28;20240;-80
2022/11/13 04:33:40;;;;;;;63.57;11.23;;;;;;;;;;5031515;28;20282;-80
2022/11/13 04:36:08;;;;;;;31.63;11.00;;;;;;;;;;5032038;28;20235;-80
2022/11/13 04:38:35;;;;;;;66.03;10.27;;;;;;;;;;5028429;28;20235;-80
2022/11/13 04:43:48;;;;;;;54.40;11.30;;;;;;;;;;5028496;28;20284;-80
2022/11/13 04:46:15;;;;;;;36.83;9.17;;;;;;;;;;5036411;28;20237;-79
2022/11/13 04:48:42;;;;;;;36.70;8.90;;;;;;;;;;5030970;28;20207;-80
2022/11/13 04:51:09;;;;;;;55.43;8.77;;;;;;;;;;5031722;28;20227;-79
2022/11/13 04:53:36;;;;;;;33.93;8.90;;;;;;;;;;5032626;28;20222;-80
2022/11/13 04:56:03;;;;;;;41.73;9.90;;;;;;;;;;5020942;28;20238;-80
2022/11/13 04:58:30;;;;;;;28.00;8.47;;;;;;;;;;5031503;28;20222;-80
2022/11/13 05:00:58;;;;;;;40.37;9.57;;;;;;;;;;5031717;28;20234;-80
2022/11/13 05:03:25;;;;;;;41.93;8.73;;;;;;;;;;5031180;28;20206;-80
2022/11/13 05:05:52;;;;;;;44.67;10.47;;;;;;;;;;5031256;28;20245;-80
2022/11/13 05:08:20;;;;;;;42.40;10.20;;;;;;;;;;5031802;28;20225;-80
2022/11/13 05:10:47;;;;;;;34.73;9.70;;;;;;;;;;5025522;28;20213;-80
2022/11/13 05:13:14;;;;;;;29.40;8.90;;;;;;;;;;5031677;28;20210;-80
2022/11/13 05:15:41;;;;;;;40.27;10.17;;;;;;;;;;5031131;28;20246;-80
2022/11/13 05:18:09;;;;;;;36.17;9.90;;;;;;;;;;5031296;28;20229;-80
2022/11/13 05:20:36;;;;;;;44.13;12.07;;;;;;;;;;5032815;28;20218;-80
2022/11/13 05:23:03;;;;;;;38.60;9.07;;;;;;;;;;5034947;28;20206;-80
2022/11/13 05:25:31;;;;;;;37.67;8.73;;;;;;;;;;5031674;28;20222;-80
2022/11/13 05:27:58;;;;;;;37.73;10.27;;;;;;;;;;5031405;28;20240;-80
2022/11/13 05:30:25;;;;;;;31.17;9.50;;;;;;;;;;5032024;28;20289;-80
2022/11/13 05:32:52;;;;;;;33.37;9.27;;;;;;;;;;5033591;28;20329;-81
2022/11/13 05:35:21;;;;;;;35.50;8.73;;;;;;;;;;5031198;28;20721;-81
2022/11/13 05:37:48;;;;;;;44.00;12.47;;;;;;;;;;5030041;28;20234;-81
2022/11/13 05:40:15;;;;;;;24.10;9.20;;;;;;;;;;5031338;28;20206;-81
2022/11/13 05:42:42;;;;;;;50.40;9.50;;;;;;;;;;5022277;28;20234;-81
2022/11/13 05:45:10;;;;;;;20.63;8.87;;;;;;;;;;5036205;28;20244;-81
2022/11/13 05:47:37;;;;;;;18.43;7.90;;;;;;;;;;5050900;28;20237;-80
2022/11/13 05:50:04;;;;;;;43.30;9.80;;;;;;;;;;5051459;28;20217;-80
2022/11/13 05:52:32;;;;;;;31.47;8.20;;;;;;;;;;5038294;28;20631;-80
2022/11/13 05:54:59;;;;;;;29.67;8.10;;;;;;;;;;5032027;28;20218;-80
2022/11/13 05:57:26;;;;;;;30.47;7.80;;;;;;;;;;5030489;28;20250;-80
2022/11/13 05:59:53;;;;;;;45.50;9.10;;;;;;;;;;5030984;28;20206;-80
2022/11/13 06:02:21;;;;;;;41.97;9.20;;;;;;;;;;5027512;28;20231;-81
2022/11/13 06:04:48;;;;;;;36.87;9.00;;;;;;;;;;5031952;28;20230;-80
2022/11/13 06:07:15;;;;;;;47.63;8.63;;;;;;;;;;5030203;28;20230;-80
2022/11/13 06:09:44;;;;;;;26.87;8.33;;;;;;;;;;5027967;28;20209;-81
2022/11/13 06:12:11;;;;;;;33.43;7.73;;;;;;;;;;5030576;28;20231;-80
2022/11/13 06:14:38;;;;;;;19.13;6.73;;;;;;;;;;5029125;28;20256;-80
2022/11/13 06:17:05;;;;;;;48.93;8.83;;;;;;;;;;5031077;28;20245;-80
2022/11/13 06:19:32;;;;;;;22.90;7.80;;;;;;;;;;5034266;28;20229;-80
2022/11/13 06:21:59;;;;;;;22.07;7.70;;;;;;;;;;5034782;28;20249;-80
2022/11/13 06:24:26;;;;;;;31.33;8.37;;;;;;;;;;5034656;28;20285;-80
2022/11/13 06:26:55;;;;;;;39.37;8.83;;;;;;;;;;5044914;28;20238;-80
2022/11/13 06:29:22;;;;;;;30.77;7.57;;;;;;;;;;5037588;28;20203;-81
2022/11/13 06:31:49;;;;;;;35.77;7.83;;;;;;;;;;5034504;28;20292;-81
2022/11/13 06:34:16;;;;;;;23.77;9.30;;;;;;;;;;5034781;28;20586;-80
2022/11/13 06:36:43;;;;;;;45.97;8.43;;;;;;;;;;5034126;28;20241;-80
2022/11/13 06:39:11;;;;;;;30.73;8.33;;;;;;;;;;5043438;28;20230;-80
2022/11/13 06:41:39;;;;;;;15.47;8.70;;;;;;;;;;5054229;28;20873;-80
2022/11/13 06:44:07;;;;;;;17.60;7.87;;;;;;;;;;5054828;28;20237;-81
2022/11/13 06:46:34;;;;;;;20.93;7.10;;;;;;;;;;5046620;28;20223;-80
2022/11/13 06:49:01;;;;;;;29.70;7.37;;;;;;;;;;5042695;28;20199;-82
2022/11/13 06:51:30;;;;;;;14.60;7.10;;;;;;;;;;5052655;28;20234;-81
2022/11/13 06:53:57;;;;;;;37.20;8.40;;;;;;;;;;5035798;28;20223;-81
2022/11/13 06:56:25;;;;;;;17.03;7.03;;;;;;;;;;5033872;28;20234;-80
2022/11/13 06:58:52;;;;;;;37.17;8.00;;;;;;;;;;5034255;28;20599;-81
2022/11/13 07:01:21;;;;;;;24.70;7.43;;;;;;;;;;5033645;28;20230;-81
2022/11/13 07:03:48;;;;;;;13.33;7.27;;;;;;;;;;5051647;28;20205;-81
2022/11/13 07:06:16;;;;;;;27.87;8.23;;;;;;;;;;5053814;28;20325;-81
2022/11/13 07:08:43;;;;;;;14.77;6.73;;;;;;;;;;5045761;28;20218;-81
2022/11/13 07:11:11;;;;;;;17.73;7.90;;;;;;;;;;5013976;28;20231;-81
2022/11/13 07:13:38;;;;;;;15.93;7.60;;;;;;;;;;5016892;28;20207;-81
2022/11/13 07:16:06;;;;;;;19.77;7.60;;;;;;;;;;5029765;23;20244;-85
2022/11/13 07:18:35;;;;;;;21.03;7.47;;;;;;;;;;5020859;28;20239;-85
2022/11/13 07:21:04;;;;;;;12.43;6.77;;;;;;;;;;5014024;28;20238;-84
2022/11/13 07:23:31;;;;;;;39.13;7.73;;;;;;;;;;5026679;28;20571;-85
2022/11/13 07:25:58;;;;;;;28.73;8.53;;;;;;;;;;5022597;28;20322;-85
2022/11/13 07:28:25;;;;;;;24.77;7.23;;;;;;;;;;5014211;28;20215;-86
2022/11/13 07:30:52;;;;;;;20.03;7.17;;;;;;;;;;5013606;28;20702;-86
2022/11/13 07:33:20;;;;;;;18.80;8.13;;;;;;;;;;5018332;28;20202;-86
2022/11/13 07:35:48;;;;;;;31.07;7.53;;;;;;;;;;5019851;28;20711;-86
2022/11/13 07:38:15;;;;;;;31.10;8.30;;;;;;;;;;5013234;28;20237;-86
2022/11/13 07:40:42;;;;;;;22.67;7.97;;;;;;;;;;5012865;28;20207;-86
2022/11/13 07:43:09;;;;;;;20.40;7.77;;;;;;;;;;4998871;28;20207;-86
2022/11/13 07:45:36;;;;;;;32.27;7.90;;;;;;;;;;5014156;28;20226;-86
2022/11/13 07:48:04;;;;;;;23.87;7.57;;;;;;;;;;5021404;28;20217;-86
2022/11/13 07:50:32;;;;;;;38.83;8.77;;;;;;;;;;5013315;28;20222;-86
2022/11/13 07:53:02;;;;;;;45.57;8.37;;;;;;;;;;4993550;28;20688;-86
2022/11/13 07:55:29;;;;;;;20.17;8.40;;;;;;;;;;4993437;28;20231;-86
2022/11/13 07:57:57;;;;;;;54.33;9.20;;;;;;;;;;5012719;28;20242;-86
2022/11/13 08:00:24;;;;;;;14.90;7.43;;;;;;;;;;5013303;28;20652;-86
2022/11/13 08:02:51;;;;;;;31.73;9.23;;;;;;;;;;5012961;28;20243;-85
2022/11/13 08:05:19;;;;;;;28.90;8.47;;;;;;;;;;5010945;28;20231;-87
2022/11/13 08:07:47;;;;;;;31.03;8.30;;;;;;;;;;5005429;28;20310;-86
2022/11/13 08:10:16;;;;;;;30.27;8.10;;;;;;;;;;5007128;28;20215;-86
2022/11/13 08:12:43;;;;;;;30.23;10.13;;;;;;;;;;4992576;28;20723;-86
2022/11/13 08:15:10;;;;;;;27.40;8.07;;;;;;;;;;4993558;28;20247;-86
2022/11/13 08:17:38;;;;;;;54.53;8.23;;;;;;;;;;5010159;28;20235;-86
2022/11/13 08:20:06;;;;;;;48.67;9.80;;;;;;;;;;5012238;28;20227;-86
2022/11/13 08:22:33;;;;;;;32.63;8.13;;;;;;;;;;5017721;28;20262;-86
2022/11/13 08:25:00;;;;;;;28.40;7.80;;;;;;;;;;5014245;28;20770;-85
2022/11/13 08:27:29;;;;;;;28.77;8.50;;;;;;;;;;5013299;28;20613;-85
2022/11/13 08:29:56;;;;;;;23.30;8.13;;;;;;;;;;5014044;28;20207;-86
2022/11/13 08:32:23;;;;;;;63.10;16.00;;;;;;;;;;5012045;28;20254;-86
2022/11/13 08:34:50;;;;;;;39.10;9.60;;;;;;;;;;5011992;28;20672;-87
2022/11/13 08:37:17;;;;;;;29.30;8.93;;;;;;;;;;5011376;28;20219;-86
2022/11/13 08:39:44;;;;;;;18.77;9.03;;;;;;;;;;5012850;28;20233;-85
2022/11/13 08:42:11;;;;;;;18.80;10.13;;;;;;;;;;5015447;28;20231;-85
2022/11/13 08:44:39;;;;;;;22.67;9.47;;;;;;;;;;5020710;28;20199;-86
2022/11/13 08:47:07;;;;;;;29.90;10.20;;;;;;;;;;5020931;28;20234;-86
2022/11/13 08:49:34;;;;;;;15.37;9.60;;;;;;;;;;5012247;28;20207;-85
2022/11/13 08:52:01;;;;;;;18.20;9.73;;;;;;;;;;4998908;28;20865;-86
2022/11/13 08:54:28;;;;;;;17.40;9.53;;;;;;;;;;5008330;28;20208;-84
2022/11/13 08:56:55;;;;;;;13.13;9.93;;;;;;;;;;5002756;28;20327;-86
2022/11/13 08:59:22;;;;;;;15.53;9.67;;;;;;;;;;5011255;28;20230;-87
2022/11/13 09:01:57;;;;;;;23.70;10.20;;;;;;;;;;5011194;28;20227;-86
2022/11/13 09:04:24;;;;;;;15.47;8.37;;;;;;;;;;5014120;28;20203;-87
2022/11/13 09:06:51;;;;;;;13.43;9.23;;;;;;;;;;5021030;28;20243;-86
2022/11/13 09:09:18;;;;;;;13.57;8.60;;;;;;;;;;5010351;28;20204;-86
2022/11/13 09:11:45;;;;;;;17.33;8.67;;;;;;;;;;5000775;28;20232;-87
2022/11/13 09:14:12;;;;;;;23.87;9.13;;;;;;;;;;5013352;28;20210;-87
2022/11/13 09:16:39;;;;;;;20.90;8.87;;;;;;;;;;5014090;28;20231;-87
2022/11/13 09:19:08;;;;;;;22.60;8.90;;;;;;;;;;5003029;28;20718;-87
2022/11/13 09:21:35;;;;;;;20.10;8.87;;;;;;;;;;5000296;28;20241;-88
2022/11/13 09:24:02;;;;;;;32.93;9.20;;;;;;;;;;4999803;28;20203;-86
2022/11/13 09:26:29;;;;;;;9.70;8.17;;;;;;;;;;5005790;28;20231;-88
2022/11/13 09:28:56;;;;;;;12.43;8.70;;;;;;;;;;5016973;28;20198;-87
2022/11/13 09:31:23;;;;;;;10.90;8.60;;;;;;;;;;5025470;28;20231;-87
2022/11/13 09:33:50;;;;;;;22.30;9.50;;;;;;;;;;5030795;28;20207;-86
2022/11/13 09:36:19;;;;;;;13.07;8.87;;;;;;;;;;5029068;28;20238;-86
2022/11/13 09:38:47;;;;;;;11.30;9.37;;;;;;;;;;5032106;28;20226;-86
2022/11/13 09:41:16;;;;;;;17.80;10.73;;;;;;;;;;5028900;28;20235;-83
2022/11/13 09:43:44;;;;;;;16.57;9.93;;;;;;;;;;5009367;28;20215;-85
2022/11/13 09:46:15;;;;;;;15.13;11.43;;;;;;;;;;5018928;28;20717;-85
2022/11/13 09:48:44;;;;;;;15.77;10.93;;;;;;;;;;5024450;28;20207;-85
2022/11/13 09:51:13;;;;;;;21.53;13.03;;;;;;;;;;5021125;28;20249;-87
2022/11/13 09:53:42;;;;;;;15.07;11.47;;;;;;;;;;5012407;28;20652;-86
2022/11/13 09:56:16;;;;;;;19.47;12.60;;;;;;;;;;5011474;28;20239;-86
2022/11/13 09:58:46;;;;;;;17.03;12.47;;;;;;;;;;5008613;28;20226;-85
2022/11/13 10:01:16;;;;;;;18.37;13.20;;;;;;;;;;4991938;28;20235;-87
2022/11/13 10:03:46;;;;;;;20.80;12.23;;;;;;;;;;4992278;28;20196;-87
2022/11/13 10:06:14;;;;;;;15.73;11.97;;;;;;;;;;4991817;28;20240;-87
2022/11/13 10:08:52;;;;;;;16.27;12.57;;;;;;;;;;4992235;28;20211;-88
2022/11/13 10:11:22;;;;;;;15.63;11.73;;;;;;;;;;4997277;28;20234;-88
2022/11/13 10:13:52;;;;;;;15.00;11.20;;;;;;;;;;5000190;28;20218;-87
2022/11/13 10:16:26;;;;;;;18.23;12.80;;;;;;;;;;4998942;28;20231;-88
2022/11/13 10:18:56;;;;;;;15.33;11.93;;;;;;;;;;5011431;28;20212;-87
2022/11/13 10:21:30;;;;;;;13.50;10.30;;;;;;;;;;5011283;28;20235;-88
2022/11/13 10:24:01;;;;;;;11.67;9.70;;;;;;;;;;5011438;28;20192;-87
2022/11/13 10:26:29;;;;;;;14.60;10.70;;;;;;;;;;5011113;28;20242;-88
2022/11/13 10:29:00;;;;;;;13.57;10.60;;;;;;;;;;5006376;28;20209;-88
2022/11/13 10:31:27;;;;;;;14.33;10.80;;;;;;;;;;5011446;28;20231;-88
2022/11/13 10:33:55;;;;;;;14.17;11.20;;;;;;;;;;5012192;28;20234;-88
2022/11/13 10:36:27;;;;;;;12.03;9.83;;;;;;;;;;5017152;28;20231;-87
2022/11/13 10:38:55;;;;;;;12.90;10.53;;;;;;;;;;5030853;28;20717;-88
2022/11/13 10:41:24;;;;;;;13.00;10.40;;;;;;;;;;5031180;28;20230;-87
2022/11/13 10:43:51;;;;;;;14.00;11.37;;;;;;;;;;5019205;28;20587;-87
2022/11/13 10:46:19;;;;;;;14.80;12.50;;;;;;;;;;5011123;28;20239;-87
2022/11/13 10:48:47;;;;;;;15.53;12.40;;;;;;;;;;5006203;28;20211;-87
2022/11/13 10:51:22;;;;;;;18.20;12.73;;;;;;;;;;4991455;28;20294;-87
2022/11/13 10:53:49;;;;;;;15.77;12.40;;;;;;;;;;4991744;28;20192;-88
2022/11/13 10:56:22;;;;;;;14.90;12.13;;;;;;;;;;4991723;28;20251;-87
2022/11/13 10:59:04;;;;;;;16.60;11.40;;;;;;;;;;4995396;28;20668;-87
2022/11/13 11:01:32;;;;;;;17.10;12.47;;;;;;;;;;4991524;28;20717;-88
2022/11/13 11:03:59;;;;;;;15.43;12.10;;;;;;;;;;4995396;28;20704;-88
2022/11/13 11:06:34;;;;;;;17.07;13.50;;;;;;;;;;4994294;28;20247;-88
2022/11/13 11:09:09;;;;;;;18.97;13.23;;;;;;;;;;4995358;28;20261;-88
2022/11/13 11:14:28;;;;;;;16.53;13.27;;;;;;;;;;4974538;28;20366;-88
2022/11/13 11:16:59;;;;;;;18.33;12.40;;;;;;;;;;4994372;28;20240;-88
2022/11/13 11:19:29;;;;;;;17.20;14.70;;;;;;;;;;4994442;28;20733;-88
2022/11/13 11:22:02;;;;;;;15.67;13.00;;;;;;;;;;4994911;28;20638;-89
2022/11/13 11:24:32;;;;;;;16.60;13.30;;;;;;;;;;4995046;28;20200;-89
2022/11/13 11:27:02;;;;;;;18.57;13.90;;;;;;;;;;4994373;28;20636;-90
2022/11/13 11:29:32;;;;;;;17.33;14.33;;;;;;;;;;4995069;28;20198;-89
2022/11/13 11:32:02;;;;;;;15.37;12.70;;;;;;;;;;4994634;28;20239;-91
2022/11/13 11:34:32;;;;;;;14.57;12.10;;;;;;;;;;4994896;28;20204;-89
2022/11/13 11:37:03;;;;;;;13.13;11.70;;;;;;;;;;4994310;28;20247;-92
2022/11/13 11:39:33;;;;;;;15.70;11.50;;;;;;;;;;4994808;28;20212;-91
2022/11/13 11:42:05;;;;;;;16.23;11.90;;;;;;;;;;5007535;28;20239;-91
2022/11/13 11:44:38;;;;;;;13.33;11.00;;;;;;;;;;5021994;28;20301;-91
2022/11/13 11:47:11;;;;;;;14.20;11.23;;;;;;;;;;5012625;28;20608;-91
2022/11/13 11:49:39;;;;;;;12.07;10.30;;;;;;;;;;4993071;28;20551;-90
2022/11/13 11:52:11;;;;;;;12.67;10.63;;;;;;;;;;4997786;28;20235;-91
2022/11/13 11:54:42;;;;;;;13.23;9.87;;;;;;;;;;5000401;28;20203;-90
2022/11/13 11:57:15;;;;;;;12.17;10.70;;;;;;;;;;5014317;28;20322;-87
2022/11/13 11:59:50;;;;;;;12.77;10.83;;;;;;;;;;4997695;28;20236;-88
2022/11/13 12:02:34;;;;;;;11.90;9.87;;;;;;;;;;5029235;28;20226;-88
2022/11/13 12:05:06;;;;;;;12.50;10.03;;;;;;;;;;5003351;28;20228;-88
2022/11/13 12:07:37;;;;;;;12.37;10.23;;;;;;;;;;5012537;28;20234;-90
2022/11/13 12:10:09;;;;;;;11.00;9.77;;;;;;;;;;5013842;28;20192;-88
2022/11/13 12:12:44;;;;;;;12.97;10.10;;;;;;;;;;5012437;28;20219;-88
2022/11/13 12:15:16;;;;;;;11.40;10.20;;;;;;;;;;5013064;28;20246;-88
2022/11/13 12:17:52;;;;;;;12.10;10.27;;;;;;;;;;5012752;28;20242;-88
2022/11/13 12:20:24;;;;;;;14.07;10.73;;;;;;;;;;5012709;28;20218;-88
2022/11/13 12:22:56;;;;;;;12.30;10.27;;;;;;;;;;5012725;28;20235;-88
2022/11/13 12:25:27;;;;;;;12.40;10.53;;;;;;;;;;5013215;28;20600;-87
2022/11/13 12:27:57;;;;;;;13.87;10.70;;;;;;;;;;5012104;28;20726;-88
2022/11/13 12:30:27;;;;;;;13.60;11.10;;;;;;;;;;5013072;28;20234;-87
2022/11/13 12:33:03;;;;;;;13.83;10.23;;;;;;;;;;5009400;28;20900;-87
2022/11/13 12:35:30;;;;;;;12.07;9.87;;;;;;;;;;5013019;28;20238;-86
2022/11/13 12:38:00;;;;;;;12.87;10.93;;;;;;;;;;5012606;28;20270;-87
2022/11/13 12:40:29;;;;;;;11.03;9.90;;;;;;;;;;5012991;28;20227;-87
2022/11/13 12:42:59;;;;;;;13.13;10.90;;;;;;;;;;5012041;28;20325;-87
2022/11/13 12:45:33;;;;;;;11.83;10.43;;;;;;;;;;5008175;28;20223;-88
2022/11/13 12:48:09;;;;;;;12.13;9.70;;;;;;;;;;5009582;28;20231;-86
2022/11/13 12:50:36;;;;;;;13.27;9.30;;;;;;;;;;5002369;28;20706;-86
2022/11/13 12:53:05;;;;;;;10.57;9.30;;;;;;;;;;5012905;28;20203;-87
2022/11/13 12:55:36;;;;;;;11.40;9.33;;;;;;;;;;5012179;28;20235;-88
2022/11/13 12:58:10;;;;;;;11.07;9.60;;;;;;;;;;5012786;28;20203;-87
2022/11/13 13:00:39;;;;;;;13.07;9.73;;;;;;;;;;5012009;28;20231;-87
2022/11/13 13:03:17;;;;;;;12.23;9.67;;;;;;;;;;5010158;28;20551;-88
2022/11/13 13:05:54;;;;;;;10.20;9.00;;;;;;;;;;5007639;28;20239;-87
2022/11/13 13:08:31;;;;;;;11.23;9.67;;;;;;;;;;4997620;28;20203;-87
2022/11/13 13:11:04;;;;;;;11.17;9.20;;;;;;;;;;5011611;28;20258;-87
2022/11/13 13:13:36;;;;;;;10.17;9.10;;;;;;;;;;5007681;28;20283;-87
2022/11/13 13:16:05;;;;;;;13.17;10.47;;;;;;;;;;5000433;28;20231;-87
2022/11/13 13:18:35;;;;;;;11.60;9.60;;;;;;;;;;5025109;28;20294;-87
2022/11/13 13:21:06;;;;;;;9.63;8.33;;;;;;;;;;5031372;28;20241;-86
2022/11/13 13:23:36;;;;;;;10.33;8.83;;;;;;;;;;5034992;22;20227;-78
2022/11/13 13:26:04;;;;;;;10.07;7.97;;;;;;;;;;5035669;28;20226;-80
2022/11/13 13:28:34;;;;;;;8.87;7.43;;;;;;;;;;5036094;28;20411;-80
2022/11/13 13:33:53;;;;;;;9.33;7.97;;;;;;;;;;5027198;28;20227;-78
2022/11/13 13:36:31;;;;;;;9.17;7.30;;;;;;;;;;5017651;28;20220;-80
2022/11/13 13:39:03;;;;;;;7.03;6.33;;;;;;;;;;5018310;28;20192;-81
2022/11/13 13:41:38;;;;;;;7.50;6.40;;;;;;;;;;5000148;28;20219;-81
2022/11/13 13:44:43;;;;;;;7.43;6.70;;;;;;;;;;5016789;28;20223;-81
2022/11/13 13:47:15;;;;;;;5.97;5.43;;;;;;;;;;4996681;28;20220;-81
2022/11/13 13:49:44;;;;;;;6.30;5.70;;;;;;;;;;4995755;28;20208;-82
2022/11/13 13:52:13;;;;;;;6.57;5.90;;;;;;;;;;4985718;28;20242;-82
2022/11/13 13:54:40;;;;;;;6.80;6.20;;;;;;;;;;4990689;28;20234;-82
2022/11/13 13:57:12;;;;;;;7.60;6.13;;;;;;;;;;4979760;28;20342;-81
2022/11/13 13:59:39;;;;;;;6.77;6.07;;;;;;;;;;4991934;28;20242;-81
2022/11/13 14:02:15;;;;;;;6.37;5.70;;;;;;;;;;4978592;28;20243;-81
2022/11/13 14:04:45;;;;;;;6.40;5.73;;;;;;;;;;4969545;28;20228;-81
2022/11/13 14:07:20;;;;;;;9.83;6.20;;;;;;;;;;4985236;28;20235;-82
2022/11/13 14:09:47;;;;;;;52.20;11.37;;;;;;;;;;4991336;28;20531;-83
2022/11/13 14:12:18;;;;;;;28.00;9.03;;;;;;;;;;5005316;28;20245;-83
2022/11/13 14:14:45;;;;;;;22.50;8.63;;;;;;;;;;5010927;28;20242;-81
2022/11/13 14:17:13;;;;;;;7.20;5.37;;;;;;;;;;5012263;28;20730;-82
2022/11/13 14:19:40;;;;;;;5.50;5.03;;;;;;;;;;5026174;28;20671;-81
2022/11/13 14:22:11;;;;;;;5.30;4.80;;;;;;;;;;5030564;28;20230;-81
2022/11/13 14:24:45;;;;;;;7.30;5.07;;;;;;;;;;5018119;28;20707;-81
2022/11/13 14:27:14;;;;;;;5.00;4.53;;;;;;;;;;5009215;28;20506;-81
2022/11/13 14:29:45;;;;;;;21.40;8.17;;;;;;;;;;5008127;28;20203;-81
2022/11/13 14:32:14;;;;;;;13.03;5.67;;;;;;;;;;5008942;28;20582;-81
2022/11/13 14:34:43;;;;;;;5.57;4.40;;;;;;;;;;5010726;28;20223;-81
2022/11/13 14:37:21;;;;;;;5.70;4.23;;;;;;;;;;5013858;28;20227;-81
2022/11/13 14:39:49;;;;;;;5.07;4.40;;;;;;;;;;5013573;28;20246;-81
2022/11/13 14:42:18;;;;;;;5.30;4.20;;;;;;;;;;5014462;28;20239;-81